Rhodes, Greece

10:30 AM EEST on April 29, 2017 (GMT +0300)
stadium of Diagoras-RHODES | | Change Station

Elev 49 ft 36.44 °N, 28.23 °E | Updated 6 seconds ago

Clear
Clear
67.3 °F
Feels Like 67.3 °F
N
8.1
Wind Variable Wind from NW
Gusts 8.1 mph

Today
High -- | Low -- °F
--% Chance of Precip.
Yesterday
High -- | Low -- °F
Precip. -- in
Pressure 29.92 in
Visibility -9999.0 miles
Clouds
Dew Point 57 °F
Humidity 70%
Rainfall 0.00 in
Snow Depth Not available.
6:16 AM 7:53 PM
Waxing Crescent, 11% visible
METAR LGRP 290720Z 25009KT CAVOK 20/14 Q1013 NOSIG
Pressure 29.92 in
Visibility -9999.0 miles
Clouds
Dew Point 57 °F
Humidity 70%
Rainfall 0.00 in
Snow Depth Not available.
6:16 AM 7:53 PM
Waxing Crescent, 11% visible
METAR LGRP 290720Z 25009KT CAVOK 20/14 Q1013 NOSIG

Get Severe Weather Alerts

Thanks for signing up!

Be on the lookout for a verification email in your inbox.

You'll start receiving the daily forecast at 8 AM.

×

10-Day Weather Forecast

×

Almanac

Astronomy

Apr. 29, 2017 Rise Set
Actual Time
Civil Twilight
Nautical Twilight
Astronomical Twilight
Moon
Length of Visible Light
Length of Day
Tomorrow will be .
, % of the Moon is Illuminated

Today's Extremes

Country Highs Country Lows

Community

WunderPhotos

WunderBlog® & News

Nearby

Air Quality

  Air Quality AQ Index Pollutant
Not available.

Snow Depth

Station Depth Elevation

Earthquake Activity

City Distance Mag. Time & Date
Minimum magnitude displayed is 2.5.

Coastal Water Temperatures

Place Temperature

Stations

Nearby Weather Stations

Station Location Temp. Windchill Dew Point Humidity Wind Precip. Elev Updated Type